Terminal Aerodrome Forecast
Issued by NWS Jackson, KY

Home | Current Version | Previous Version | Text Only | Print | Product List | Glossary On
Versions: 1 2 3 4 5 6 7 8 9 10 11 12 13 14
000
FTUS43 KJKL 012300 RRA
TAFLOZ
TAF
KLOZ 012339Z 0200/0224 19012G22KT 4SM -SHRA BR SCT008 OVC015
     FM020500 24009KT 4SM -SHRA BR OVC008
     FM021000 28011G22KT 6SM SHRASN BR OVC015
     FM021200 28012G21KT 6SM -SHSN BR OVC010
     FM022100 31007KT P6SM BKN025=

USA.gov is the U.S. government's official web portal to all federal, state and local government web resources and services.